createdAt,value
2022-07-29T00:00:55.563Z,18.31
2022-07-29T00:03:24.466Z,18.29
2022-07-29T00:05:54.890Z,18.30
2022-07-29T00:08:24.584Z,18.36
2022-07-29T00:10:54.815Z,18.42
2022-07-29T00:13:32.278Z,18.45
2022-07-29T00:16:04.410Z,18.48
2022-07-29T00:18:34.828Z,18.49
2022-07-29T00:21:03.894Z,18.50
2022-07-29T00:23:36.477Z,18.45
2022-07-29T00:26:06.471Z,18.39
2022-07-29T00:28:35.019Z,18.34
2022-07-29T00:31:03.716Z,18.25
2022-07-29T00:33:33.372Z,18.11
2022-07-29T00:36:02.220Z,18.01
2022-07-29T00:38:31.555Z,17.98
2022-07-29T00:41:01.114Z,17.96
2022-07-29T00:43:30.571Z,17.92
2022-07-29T00:45:59.240Z,17.86
2022-07-29T00:48:30.075Z,17.74
2022-07-29T00:51:00.532Z,17.65
2022-07-29T00:53:31.096Z,17.57
2022-07-29T00:56:00.534Z,17.54
2022-07-29T00:58:29.951Z,17.56
2022-07-29T01:00:59.614Z,17.56
2022-07-29T01:03:28.401Z,17.52
2022-07-29T01:05:57.457Z,17.42
2022-07-29T01:08:27.580Z,17.29
2022-07-29T01:10:56.876Z,17.22
2022-07-29T01:13:27.095Z,17.20
2022-07-29T01:16:05.284Z,17.19
2022-07-29T01:18:39.537Z,17.18
2022-07-29T01:21:46.339Z,17.17
2022-07-29T01:24:38.754Z,17.20
2022-07-29T01:27:45.637Z,17.20
2022-07-29T01:30:15.654Z,17.16
2022-07-29T01:32:49.663Z,17.12
2022-07-29T01:35:39.236Z,17.13
2022-07-29T01:38:15.602Z,17.16
2022-07-29T01:40:55.496Z,17.20
2022-07-29T01:43:39.125Z,17.26
2022-07-29T01:46:13.315Z,17.32
2022-07-29T01:48:59.071Z,17.36
2022-07-29T01:51:34.620Z,17.36
2022-07-29T01:54:22.171Z,17.40
2022-07-29T01:56:53.216Z,17.43
2022-07-29T01:59:23.311Z,17.44
2022-07-29T02:01:55.072Z,17.43
2022-07-29T02:04:29.498Z,17.41
2022-07-29T02:07:06.844Z,17.37
2022-07-29T02:09:38.343Z,17.25
2022-07-29T02:12:08.670Z,17.11
2022-07-29T02:14:46.152Z,16.99
2022-07-29T02:17:17.696Z,16.84
2022-07-29T02:19:48.088Z,16.75
2022-07-29T02:22:18.043Z,16.66
2022-07-29T02:24:50.226Z,16.58
2022-07-29T02:27:21.268Z,16.48
2022-07-29T02:29:53.063Z,16.39
2022-07-29T02:32:23.953Z,16.31
2022-07-29T02:34:54.238Z,16.24
2022-07-29T02:37:24.204Z,16.18
2022-07-29T02:39:55.394Z,16.15
2022-07-29T02:42:28.037Z,16.13
2022-07-29T02:44:57.750Z,16.15
2022-07-29T02:47:41.578Z,16.18
2022-07-29T02:50:17.244Z,16.19
2022-07-29T02:52:56.525Z,16.21
2022-07-29T02:55:47.561Z,16.24
2022-07-29T02:58:30.305Z,16.26
2022-07-29T03:01:21.743Z,16.26
2022-07-29T03:03:55.041Z,16.26
2022-07-29T03:06:37.618Z,16.26
2022-07-29T03:09:13.517Z,16.18
2022-07-29T03:11:49.805Z,16.17
2022-07-29T03:14:21.137Z,16.17
2022-07-29T03:16:51.706Z,16.15
2022-07-29T03:19:21.683Z,16.11
2022-07-29T03:21:50.417Z,16.14
2022-07-29T03:24:50.557Z,16.18
2022-07-29T03:27:19.835Z,16.26
2022-07-29T03:29:50.013Z,16.37
2022-07-29T03:32:23.784Z,16.44
2022-07-29T03:34:54.111Z,16.49
2022-07-29T03:37:23.039Z,16.52
2022-07-29T03:39:53.870Z,16.55
2022-07-29T03:42:31.098Z,16.59
2022-07-29T03:45:09.317Z,16.59
2022-07-29T03:47:50.584Z,16.59
2022-07-29T03:50:23.297Z,16.59
2022-07-29T03:52:52.715Z,16.62
2022-07-29T03:55:21.905Z,16.68
2022-07-29T03:57:52.625Z,16.77
2022-07-29T04:00:21.921Z,16.85
2022-07-29T04:02:50.982Z,16.90
2022-07-29T04:05:21.108Z,16.95
2022-07-29T04:07:50.348Z,17.01
2022-07-29T04:10:26.878Z,17.07
2022-07-29T04:13:01.647Z,17.16
2022-07-29T04:15:31.381Z,17.23
2022-07-29T04:18:00.849Z,17.32
2022-07-29T04:20:30.781Z,17.44
2022-07-29T04:22:59.771Z,17.62
2022-07-29T04:25:28.550Z,17.78
2022-07-29T04:28:04.430Z,17.87
2022-07-29T04:30:35.048Z,18.01
2022-07-29T04:33:06.479Z,18.16
2022-07-29T04:35:38.632Z,18.44
2022-07-29T04:38:15.690Z,18.33
2022-07-29T04:40:46.837Z,18.25
2022-07-29T04:43:17.167Z,18.18
2022-07-29T04:45:51.748Z,18.16
2022-07-29T04:48:25.328Z,18.15
2022-07-29T04:50:58.229Z,18.14
2022-07-29T04:53:29.184Z,18.14
2022-07-29T04:55:58.095Z,18.10
2022-07-29T04:58:27.770Z,18.00
2022-07-29T05:00:58.401Z,17.93
2022-07-29T05:03:27.401Z,17.89
2022-07-29T05:05:56.085Z,17.97
2022-07-29T05:08:25.496Z,18.10
2022-07-29T05:10:54.178Z,18.36
2022-07-29T05:13:23.267Z,18.78
2022-07-29T05:15:52.136Z,18.87
2022-07-29T05:18:21.459Z,18.93
2022-07-29T05:20:55.818Z,19.08
2022-07-29T05:23:24.766Z,19.27
2022-07-29T05:25:53.469Z,19.43
2022-07-29T05:28:22.858Z,19.77
2022-07-29T05:30:51.601Z,20.31
2022-07-29T05:33:35.296Z,20.73
2022-07-29T05:36:09.620Z,20.84
2022-07-29T05:38:38.402Z,20.98
2022-07-29T05:41:07.889Z,21.33
2022-07-29T05:43:36.870Z,21.73
2022-07-29T05:46:05.704Z,21.75
2022-07-29T05:48:34.626Z,21.72
2022-07-29T05:51:03.693Z,21.79
2022-07-29T05:53:32.367Z,22.15
2022-07-29T05:56:05.790Z,22.71
2022-07-29T05:58:34.527Z,23.34
2022-07-29T06:01:04.025Z,23.72
2022-07-29T06:03:32.963Z,23.88
2022-07-29T06:06:01.738Z,24.21
2022-07-29T06:08:30.831Z,24.30
2022-07-29T06:10:59.806Z,24.31
2022-07-29T06:13:28.516Z,24.17
2022-07-29T06:15:57.851Z,23.98
2022-07-29T06:18:28.641Z,23.95
2022-07-29T06:20:57.477Z,23.80
2022-07-29T06:23:26.551Z,23.63
2022-07-29T06:25:55.429Z,23.54
2022-07-29T06:28:24.436Z,23.45
2022-07-29T06:30:53.933Z,23.21
2022-07-29T06:33:22.999Z,23.11
2022-07-29T06:35:53.154Z,23.16
2022-07-29T06:38:31.798Z,23.29
2022-07-29T06:41:03.452Z,23.37
2022-07-29T06:43:35.741Z,23.40
2022-07-29T06:46:21.434Z,23.52
2022-07-29T06:48:53.050Z,23.44
2022-07-29T06:51:23.907Z,23.38
2022-07-29T06:54:00.633Z,23.40
2022-07-29T06:56:43.014Z,23.49
2022-07-29T06:59:13.881Z,23.46
2022-07-29T07:01:44.176Z,23.39
2022-07-29T07:04:15.342Z,23.24
2022-07-29T07:06:44.238Z,22.99
2022-07-29T07:09:12.730Z,22.74
2022-07-29T07:11:42.202Z,22.59
2022-07-29T07:14:10.817Z,22.57
2022-07-29T07:16:39.433Z,22.58
2022-07-29T07:19:09.754Z,22.61
2022-07-29T07:21:38.349Z,22.62
2022-07-29T07:24:07.717Z,22.86
2022-07-29T07:26:37.954Z,23.48
2022-07-29T07:29:07.249Z,24.23
2022-07-29T07:31:36.938Z,24.74
2022-07-29T07:34:06.968Z,25.22
2022-07-29T07:36:35.758Z,25.82
2022-07-29T07:39:06.803Z,26.30
2022-07-29T07:41:35.766Z,26.65
2022-07-29T07:45:12.018Z,26.89
2022-07-29T07:47:12.442Z,26.97
2022-07-29T07:49:41.715Z,26.67
2022-07-29T07:52:10.681Z,26.71
2022-07-29T07:54:39.399Z,26.66
2022-07-29T07:57:08.247Z,26.51
2022-07-29T07:59:36.976Z,26.35
2022-07-29T08:02:06.151Z,26.06
2022-07-29T08:04:40.529Z,25.85
2022-07-29T08:07:11.594Z,25.77
2022-07-29T08:09:40.574Z,25.71
2022-07-29T08:12:10.048Z,25.68
2022-07-29T08:14:39.140Z,25.71
2022-07-29T08:17:07.864Z,25.81
2022-07-29T08:19:36.516Z,26.22
2022-07-29T08:22:07.781Z,26.64
2022-07-29T08:24:47.543Z,26.95
2022-07-29T08:27:41.762Z,27.15
2022-07-29T08:30:05.690Z,27.43
2022-07-29T08:32:53.039Z,27.51
2022-07-29T08:35:26.736Z,27.45
2022-07-29T08:37:58.679Z,27.07
2022-07-29T08:40:32.198Z,26.89
2022-07-29T08:43:09.949Z,26.80
2022-07-29T08:45:56.975Z,26.74
2022-07-29T08:48:26.219Z,26.81
2022-07-29T08:50:57.399Z,26.79
2022-07-29T08:53:28.619Z,26.55
2022-07-29T08:55:58.286Z,26.45
2022-07-29T08:58:32.710Z,26.42
2022-07-29T09:01:36.393Z,26.24
2022-07-29T09:04:13.401Z,25.95
2022-07-29T09:06:49.102Z,25.97
2022-07-29T09:09:18.611Z,26.12
2022-07-29T09:11:48.242Z,26.17
2022-07-29T09:14:16.910Z,26.30
2022-07-29T09:16:59.652Z,26.43
2022-07-29T09:19:36.150Z,26.58
2022-07-29T09:22:10.871Z,26.67
2022-07-29T09:24:45.219Z,26.96
2022-07-29T09:27:27.863Z,27.42
2022-07-29T09:30:07.821Z,27.99
2022-07-29T09:32:55.145Z,28.63
2022-07-29T09:35:26.614Z,28.96
2022-07-29T09:37:56.270Z,29.19
2022-07-29T09:40:29.249Z,29.42
2022-07-29T09:42:58.879Z,29.55
2022-07-29T09:45:34.516Z,29.61
2022-07-29T09:48:20.271Z,29.65
2022-07-29T09:50:52.569Z,29.72
2022-07-29T09:53:41.265Z,29.80
2022-07-29T09:56:14.836Z,29.58
2022-07-29T09:58:44.158Z,29.49
2022-07-29T10:01:17.531Z,29.41
2022-07-29T10:03:55.780Z,29.23
2022-07-29T10:06:26.712Z,28.93
2022-07-29T10:08:56.416Z,28.63
2022-07-29T10:11:48.137Z,28.34
2022-07-29T10:14:31.216Z,28.11
2022-07-29T10:17:02.744Z,28.21
2022-07-29T10:19:32.907Z,28.28
2022-07-29T10:22:04.431Z,28.24
2022-07-29T10:24:36.061Z,28.19
2022-07-29T10:27:08.757Z,28.22
2022-07-29T10:29:38.179Z,28.33
2022-07-29T10:32:34.879Z,28.44
2022-07-29T10:35:11.302Z,28.47
2022-07-29T10:38:18.096Z,28.51
2022-07-29T10:41:32.032Z,28.69
2022-07-29T10:44:19.306Z,28.76
2022-07-29T10:46:53.102Z,28.74
2022-07-29T10:49:30.373Z,28.64
2022-07-29T10:52:08.578Z,28.59
2022-07-29T10:54:42.474Z,28.51
2022-07-29T10:57:12.994Z,28.38
2022-07-29T10:59:43.836Z,28.35
2022-07-29T11:02:41.313Z,28.33
2022-07-29T11:05:23.018Z,28.31
2022-07-29T11:08:19.630Z,28.25
2022-07-29T11:10:50.259Z,28.10
2022-07-29T11:13:52.371Z,28.06
2022-07-29T11:16:25.326Z,28.05
2022-07-29T11:19:13.162Z,28.02
2022-07-29T11:21:54.007Z,28.04
2022-07-29T11:24:30.442Z,28.03
2022-07-29T11:27:14.803Z,27.98
2022-07-29T11:29:53.510Z,27.81
2022-07-29T11:32:24.644Z,27.75
2022-07-29T11:35:27.693Z,27.68
2022-07-29T11:38:28.120Z,27.66
2022-07-29T11:41:27.751Z,27.72
2022-07-29T11:44:02.854Z,27.72
2022-07-29T11:49:48.176Z,27.90
2022-07-29T11:52:17.306Z,28.04
2022-07-29T11:54:58.255Z,28.16
2022-07-29T11:57:37.162Z,28.29
2022-07-29T12:00:14.528Z,28.40
2022-07-29T12:02:48.721Z,28.34
2022-07-29T12:05:35.857Z,28.40
2022-07-29T12:07:03.694Z,27.74
2022-07-29T12:08:20.371Z,28.54
2022-07-29T12:10:52.230Z,28.53
2022-07-29T12:13:23.036Z,28.46
2022-07-29T12:16:07.185Z,28.29
2022-07-29T12:18:35.842Z,28.29
2022-07-29T12:21:06.122Z,28.34
2022-07-29T12:23:35.760Z,28.36
2022-07-29T12:26:10.541Z,28.29
2022-07-29T12:28:40.363Z,28.33
2022-07-29T12:31:43.278Z,28.36
2022-07-29T12:34:09.035Z,28.44
2022-07-29T12:36:38.792Z,28.45
2022-07-29T12:39:07.629Z,28.47
2022-07-29T12:41:40.519Z,28.48
2022-07-29T12:44:09.121Z,28.40
2022-07-29T12:46:38.292Z,28.26
2022-07-29T12:49:08.780Z,28.24
2022-07-29T12:51:40.333Z,28.18
2022-07-29T12:54:14.887Z,28.18
2022-07-29T12:56:45.617Z,28.24
2022-07-29T12:59:23.173Z,28.26
2022-07-29T13:01:54.310Z,28.27
2022-07-29T13:04:31.350Z,28.33
2022-07-29T13:07:02.023Z,28.45
2022-07-29T13:09:39.940Z,28.50
2022-07-29T13:12:13.666Z,28.41
2022-07-29T13:14:45.573Z,28.32
2022-07-29T13:17:17.818Z,28.34
2022-07-29T13:19:47.882Z,28.32
2022-07-29T13:22:19.216Z,28.25
2022-07-29T13:25:04.991Z,28.18
2022-07-29T13:27:37.581Z,28.01
2022-07-29T13:30:11.110Z,27.85
2022-07-29T13:32:40.649Z,27.91
2022-07-29T13:35:11.221Z,27.87
2022-07-29T13:37:39.918Z,27.90
2022-07-29T13:40:10.449Z,28.01
2022-07-29T13:42:40.228Z,28.10
2022-07-29T13:45:10.136Z,28.10
2022-07-29T13:47:40.980Z,28.10
2022-07-29T13:50:11.953Z,28.08
2022-07-29T13:52:40.583Z,28.04
2022-07-29T13:55:09.806Z,27.97
2022-07-29T13:57:39.273Z,27.89
2022-07-29T14:00:08.598Z,27.90
2022-07-29T14:02:38.899Z,27.96
2022-07-29T14:05:09.014Z,27.95
2022-07-29T14:07:40.206Z,27.94
2022-07-29T14:10:10.576Z,27.89
2022-07-29T14:12:39.577Z,27.87
2022-07-29T14:18:05.675Z,27.93
2022-07-29T14:20:58.905Z,27.90
2022-07-29T14:23:56.607Z,27.81
2022-07-29T14:26:26.042Z,27.78
2022-07-29T14:28:56.267Z,27.70
2022-07-29T14:31:24.813Z,27.63
2022-07-29T14:33:53.547Z,27.60
2022-07-29T14:36:22.201Z,27.59
2022-07-29T14:38:51.164Z,27.56
2022-07-29T14:41:19.952Z,27.57
2022-07-29T14:43:48.550Z,27.63
2022-07-29T14:46:17.327Z,27.71
2022-07-29T14:48:46.203Z,27.74
2022-07-29T14:51:14.956Z,27.76
2022-07-29T14:53:43.456Z,27.80
2022-07-29T14:56:35.569Z,27.85
2022-07-29T14:59:02.141Z,27.85
2022-07-29T15:01:31.315Z,27.82
2022-07-29T15:04:01.953Z,27.80
2022-07-29T15:06:30.742Z,27.78
2022-07-29T15:08:59.878Z,27.73
2022-07-29T15:11:28.363Z,27.68
2022-07-29T15:13:57.178Z,27.63
2022-07-29T15:16:26.076Z,27.55
2022-07-29T15:18:54.728Z,27.58
2022-07-29T15:21:23.733Z,27.61
2022-07-29T15:23:52.890Z,27.59
2022-07-29T15:26:21.614Z,27.58
2022-07-29T15:28:51.653Z,27.60
2022-07-29T15:31:21.982Z,27.65
2022-07-29T15:33:56.947Z,27.67
2022-07-29T15:36:50.672Z,27.69
2022-07-29T15:39:15.886Z,27.76
2022-07-29T15:41:44.808Z,27.85
2022-07-29T15:44:13.529Z,27.75
2022-07-29T15:47:01.754Z,27.65
2022-07-29T15:49:48.056Z,27.58
2022-07-29T15:52:25.417Z,27.40
2022-07-29T15:54:57.278Z,27.31
2022-07-29T15:57:26.535Z,27.25
2022-07-29T15:59:55.547Z,27.14
2022-07-29T16:02:24.292Z,27.05
2022-07-29T16:04:53.290Z,26.94
2022-07-29T16:07:22.454Z,26.89
2022-07-29T16:09:53.227Z,26.85
2022-07-29T16:12:25.423Z,26.81
2022-07-29T16:14:54.256Z,26.72
2022-07-29T16:17:23.226Z,26.61
2022-07-29T16:19:53.847Z,26.57
2022-07-29T16:22:22.907Z,26.57
2022-07-29T16:24:51.419Z,26.52
2022-07-29T16:27:25.393Z,26.47
2022-07-29T16:29:57.934Z,26.39
2022-07-29T16:32:27.172Z,26.29
2022-07-29T16:34:55.965Z,26.25
2022-07-29T16:37:24.742Z,26.14
2022-07-29T16:39:57.748Z,26.10
2022-07-29T16:42:45.425Z,26.08
2022-07-29T16:45:17.975Z,26.03
2022-07-29T16:47:48.902Z,25.96
2022-07-29T16:50:19.054Z,25.89
2022-07-29T16:52:47.595Z,25.84
2022-07-29T16:55:16.145Z,25.81
2022-07-29T16:57:46.087Z,25.83
2022-07-29T17:00:16.850Z,25.83
2022-07-29T17:02:56.255Z,25.78
2022-07-29T17:05:52.226Z,25.74
2022-07-29T17:08:41.701Z,25.66
2022-07-29T17:11:53.623Z,25.60
2022-07-29T17:14:44.651Z,25.50
2022-07-29T17:17:38.776Z,25.38
2022-07-29T17:20:29.014Z,25.38
2022-07-29T17:23:26.660Z,25.44
2022-07-29T17:26:21.929Z,25.45
2022-07-29T17:29:25.506Z,25.35
2022-07-29T17:32:18.846Z,25.34
2022-07-29T17:35:28.904Z,25.34
2022-07-29T17:38:28.051Z,25.28
2022-07-29T17:41:12.807Z,25.23
2022-07-29T17:43:42.577Z,25.17
2022-07-29T17:46:14.199Z,25.10
2022-07-29T17:48:44.622Z,25.05
2022-07-29T17:51:13.673Z,25.01
2022-07-29T17:53:42.389Z,24.97
2022-07-29T17:56:11.401Z,24.88
2022-07-29T17:58:41.360Z,24.80
2022-07-29T18:01:11.329Z,24.70
2022-07-29T18:03:41.144Z,24.62
2022-07-29T18:06:14.702Z,24.56
2022-07-29T18:08:48.331Z,24.49
2022-07-29T18:11:17.365Z,24.42
2022-07-29T18:13:46.006Z,24.33
2022-07-29T18:16:15.133Z,24.26
2022-07-29T18:18:45.267Z,24.21
2022-07-29T18:21:13.869Z,24.16
2022-07-29T18:23:42.842Z,24.12
2022-07-29T18:26:12.012Z,24.11
2022-07-29T18:28:40.481Z,24.09
2022-07-29T18:31:09.713Z,24.05
2022-07-29T18:33:40.743Z,24.01
2022-07-29T18:36:11.696Z,23.96
2022-07-29T18:38:41.750Z,23.90
2022-07-29T18:41:11.744Z,23.79
2022-07-29T18:43:40.237Z,23.71
2022-07-29T18:46:09.553Z,23.66
2022-07-29T18:48:39.132Z,23.59
2022-07-29T18:51:09.958Z,23.51
2022-07-29T18:53:42.148Z,23.43
2022-07-29T18:56:11.255Z,23.35
2022-07-29T18:58:40.114Z,23.24
2022-07-29T19:01:09.910Z,23.15
2022-07-29T19:03:42.499Z,23.11
2022-07-29T19:06:12.142Z,23.08
2022-07-29T19:08:40.728Z,23.05
2022-07-29T19:11:10.102Z,23.04
2022-07-29T19:13:39.563Z,23.01
2022-07-29T19:16:12.103Z,22.99
2022-07-29T19:18:41.739Z,22.98
2022-07-29T19:21:11.393Z,22.96
2022-07-29T19:24:01.501Z,22.94
2022-07-29T19:26:29.300Z,22.92
2022-07-29T19:28:58.160Z,22.89
2022-07-29T19:31:26.755Z,22.86
2022-07-29T19:33:55.849Z,22.79
2022-07-29T19:36:27.243Z,22.76
2022-07-29T19:38:55.964Z,22.73
2022-07-29T19:41:25.235Z,22.70
2022-07-29T19:43:54.879Z,22.63
2022-07-29T19:46:24.785Z,22.52
2022-07-29T19:48:54.047Z,22.41
2022-07-29T19:51:24.532Z,22.32
2022-07-29T19:53:53.459Z,22.24
2022-07-29T19:56:30.713Z,22.22
2022-07-29T19:58:59.298Z,22.24
2022-07-29T20:01:28.326Z,22.25
2022-07-29T20:03:57.285Z,22.25
2022-07-29T20:06:27.587Z,22.24
2022-07-29T20:08:58.727Z,22.24
2022-07-29T20:11:30.334Z,22.21
2022-07-29T20:13:59.477Z,22.16
2022-07-29T20:16:28.067Z,22.09
2022-07-29T20:18:56.707Z,22.04
2022-07-29T20:21:27.150Z,21.99
2022-07-29T20:23:58.959Z,21.97
2022-07-29T20:26:28.206Z,21.99
2022-07-29T20:28:56.814Z,22.04
2022-07-29T20:31:25.503Z,22.12
2022-07-29T20:33:54.722Z,22.18
2022-07-29T20:36:23.362Z,22.22
2022-07-29T20:38:52.223Z,22.25
2022-07-29T20:41:21.303Z,22.27
2022-07-29T20:43:53.454Z,22.27
2022-07-29T20:46:23.356Z,22.26
2022-07-29T20:48:54.929Z,22.25
2022-07-29T20:51:24.092Z,22.25
2022-07-29T20:53:52.884Z,22.27
2022-07-29T20:56:21.589Z,22.28
2022-07-29T20:58:51.341Z,22.29
2022-07-29T21:01:20.280Z,22.29
2022-07-29T21:03:48.861Z,22.23
2022-07-29T21:06:18.051Z,22.20
2022-07-29T21:08:46.929Z,22.13
2022-07-29T21:11:15.922Z,22.03
2022-07-29T21:13:46.234Z,21.95
2022-07-29T21:16:15.151Z,21.82
2022-07-29T21:18:46.891Z,21.74
2022-07-29T21:21:17.049Z,21.72
2022-07-29T21:23:46.362Z,21.71
2022-07-29T21:26:16.527Z,21.64
2022-07-29T21:28:45.040Z,21.58
2022-07-29T21:31:15.067Z,21.54
2022-07-29T21:33:46.372Z,21.50
2022-07-29T21:39:07.704Z,21.39
2022-07-29T21:41:36.831Z,21.36
2022-07-29T21:44:05.442Z,21.32
2022-07-29T21:46:34.081Z,21.29
2022-07-29T21:49:03.349Z,21.24
2022-07-29T21:51:31.771Z,21.17
2022-07-29T21:54:00.474Z,21.13
2022-07-29T21:56:29.917Z,21.12
2022-07-29T21:59:00.462Z,21.04
2022-07-29T22:01:29.226Z,20.96
2022-07-29T22:04:08.994Z,20.90
2022-07-29T22:06:37.811Z,20.89
2022-07-29T22:09:06.450Z,20.89
2022-07-29T22:11:37.205Z,20.91
2022-07-29T22:14:08.074Z,20.97
2022-07-29T22:16:37.221Z,20.99
2022-07-29T22:19:05.983Z,21.00
2022-07-29T22:21:34.945Z,20.99
2022-07-29T22:24:03.989Z,20.97
2022-07-29T22:26:33.773Z,20.95
2022-07-29T22:29:02.669Z,20.92
2022-07-29T22:31:32.147Z,20.87
2022-07-29T22:34:00.955Z,20.83
2022-07-29T22:36:29.646Z,20.83
2022-07-29T22:38:58.810Z,20.80
2022-07-29T22:41:27.406Z,20.77
2022-07-29T22:43:55.954Z,20.76
2022-07-29T22:46:25.217Z,20.71
2022-07-29T22:48:54.267Z,20.70
2022-07-29T22:51:23.183Z,20.67
2022-07-29T22:53:52.646Z,20.63
2022-07-29T22:56:21.729Z,20.61
2022-07-29T22:58:50.561Z,20.59
2022-07-29T23:01:37.586Z,20.56
2022-07-29T23:04:07.618Z,20.54
2022-07-29T23:06:36.852Z,20.50
2022-07-29T23:09:05.541Z,20.46
2022-07-29T23:11:34.399Z,20.43
2022-07-29T23:14:03.182Z,20.42
2022-07-29T23:16:31.771Z,20.37
2022-07-29T23:19:02.003Z,20.26
2022-07-29T23:21:30.986Z,20.21
2022-07-29T23:23:59.565Z,20.20
2022-07-29T23:26:28.565Z,20.19
2022-07-29T23:28:57.300Z,20.20
2022-07-29T23:31:26.035Z,20.22
2022-07-29T23:33:54.879Z,20.26
2022-07-29T23:36:24.218Z,20.29
2022-07-29T23:38:52.844Z,20.32
2022-07-29T23:41:24.249Z,20.33
2022-07-29T23:43:53.383Z,20.31
2022-07-29T23:46:24.002Z,20.28
2022-07-29T23:48:52.913Z,20.26
2022-07-29T23:51:22.189Z,20.21
2022-07-29T23:53:53.279Z,20.21
2022-07-29T23:56:23.867Z,20.21
2022-07-29T23:58:52.377Z,20.22
